Date,TemperatureHighF,TemperatureAvgF,TemperatureLowF,DewpointHighF,DewpointAvgF,DewpointLowF,HumidityHigh,HumidityAvg,HumidityLow,PressureMaxIn,PressureMinIn,WindSpeedMaxMPH,WindSpeedAvgMPH,GustSpeedMaxMPH,PrecipitationSumIn
2014-1-1,49.0,35.4,26.8,34.3,28.6,24.7,96,78,48,30.46,30.18,6,0,6,0.00
2014-1-2,45.2,36.6,29.7,40.5,33.6,26.8,96,89,72,30.18,29.62,4,0,4,0.30
2014-1-3,35.5,28.4,21.2,34.5,15.9,8.4,96,61,39,30.54,29.64,7,1,12,0.00
2014-1-4,39.9,28.8,17.4,25.6,15.7,9.5,83,60,35,30.60,30.34,9,0,9,0.00
2014-1-5,58.7,45.7,35.5,57.6,40.9,25.2,99,83,62,30.35,29.77,12,0,12,0.01
2014-1-6,60.8,44.2,17.8,59.9,35.6,-1.2,98,74,41,30.15,29.57,16,2,16,0.17
2014-1-7,21.7,15.9,9.9,3.4,-1.8,-5.9,56,45,34,30.52,30.14,12,2,12,0.00
2014-1-8,38.9,25.5,13.7,18.7,9.5,1.5,83,53,30,30.66,30.51,7,0,7,0.01
2014-1-9,47.2,35.7,28.9,27.3,21.2,15.6,83,57,35,30.66,30.52,4,0,4,0.00
2014-1-10,39.7,37.0,32.5,39.4,34.9,27.4,99,92,81,30.56,30.14,3,0,3,0.22
2014-1-11,63.9,49.5,39.2,63.9,49.0,38.9,100,98,94,30.14,29.54,15,1,15,0.26
2014-1-12,55.1,45.7,35.6,49.1,37.6,32.4,97,75,47,30.18,29.63,9,1,9,0.00
2014-1-13,60.8,46.8,32.6,42.5,37.1,31.3,96,72,46,30.19,29.97,13,1,13,0.02
2014-1-14,51.8,47.0,37.4,49.4,45.0,36.8,99,93,66,29.99,29.75,7,0,7,0.02
2014-1-15,55.0,42.8,33.4,48.9,40.8,33.2,100,93,76,30.01,29.87,8,0,8,0.00
2014-1-16,40.6,34.7,31.5,36.4,32.1,29.5,97,90,70,30.08,29.95,3,0,7,0.00
2014-1-17,51.1,38.9,28.9,36.5,31.7,27.1,94,77,46,30.05,29.84,4,0,7,0.02
2014-1-18,42.4,33.5,25.4,36.5,22.2,13.0,89,65,41,30.05,29.84,11,1,11,0.00
2014-1-19,50.7,38.6,25.5,31.1,25.3,17.9,75,60,42,30.03,29.85,13,1,13,0.00
2014-1-20,59.7,46.1,38.2,32.3,28.4,23.4,74,52,31,29.90,29.73,14,1,14,0.00
2014-1-21,40.9,33.1,21.1,32.3,27.8,18.4,93,81,67,29.90,29.66,12,1,12,0.00
2014-1-22,24.8,18.8,13.8,18.4,5.9,-2.5,89,59,31,30.17,29.89,8,1,9,0.00
2014-1-23,31.4,21.8,12.0,15.0,8.9,-1.5,87,59,37,30.50,30.15,13,1,13,0.00
2014-1-24,25.1,18.1,11.2,2.8,0.0,-2.8,59,45,30,30.64,30.24,9,1,9,0.00
2014-1-25,36.0,28.8,18.8,22.2,10.9,1.4,60,47,37,30.24,29.59,14,2,14,0.00
2014-1-26,43.2,33.3,19.4,24.6,13.7,4.9,70,46,25,29.99,29.75,13,1,13,0.00
2014-1-27,61.9,43.6,28.1,38.2,27.7,10.6,74,54,38,30.19,29.77,11,1,11,0.00
2014-1-28,28.1,20.6,15.0,12.3,5.6,-5.7,86,55,30,30.45,30.19,6,0,6,0.00
2014-1-29,26.7,15.6,12.3,13.9,10.2,7.2,87,80,47,30.41,30.26,3,0,7,0.00
2014-1-30,34.4,20.3,6.2,15.7,9.9,3.2,93,67,37,30.52,30.27,5,0,5,0.00
2014-1-31,51.1,32.2,16.8,25.4,18.2,12.7,88,61,23,30.27,30.16,3,0,5,0.00